Terminal Aerodrome Forecast
Issued by NWS

Home | Current Version | Previous Version | Text Only | Print | Product List | Glossary On
Versions: 1 2 3 4 5 6 7 8 9 10 11 12 13 14 15 16 17 18 19
000
FTAK31 PAFA 120524
TAFAMC
TAF
PAMC 120524Z 1206/1306 VRB04KT P6SM VCSH SCT025 BKN035 OVC050
     FM121500 VRB04KT P6SM SCT035 BKN050 OVC100=

USA.gov is the U.S. government's official web portal to all federal, state and local government web resources and services.